Time;durP1;ratioP1;P1;durP2;ratioP2;P2;SDS_P1;SDS_P2;PMS_P1;PMS_P2;Temp;Humidity;BMP_temperature;BMP_pressure;BME280_temperature;BME280_humidity;BME280_pressure;Samples;Min_cycle;Max_cycle;Signal;HPM_P1;HPM_P2
2023/07/24 00:01:36;;;;;;;8.83;7.93;;;;;;;27.71;46.00;99556.47;5071716;28;20278;-69
2023/07/24 00:04:03;;;;;;;8.00;7.20;;;;;;;27.72;46.01;99560.81;5071853;28;20253;-69
2023/07/24 00:06:31;;;;;;;9.13;8.33;;;;;;;27.72;46.38;99558.09;5072138;28;20272;-69
2023/07/24 00:08:58;;;;;;;8.60;7.80;;;;;;;27.66;46.73;99562.84;5071463;28;20246;-69
2023/07/24 00:11:24;;;;;;;9.73;8.33;;;;;;;27.35;47.80;99561.03;5071697;28;20200;-69
2023/07/24 00:13:51;;;;;;;9.50;8.60;;;;;;;27.40;47.34;99564.47;5071821;28;20226;-69
2023/07/24 00:16:18;;;;;;;10.27;8.27;;;;;;;27.32;47.93;99567.13;5071624;28;20702;-69
2023/07/24 00:18:44;;;;;;;10.20;8.80;;;;;;;27.17;47.71;99570.94;5072074;28;20261;-69
2023/07/24 00:21:13;;;;;;;11.60;9.50;;;;;;;27.19;47.62;99562.44;5071900;28;20241;-69
2023/07/24 00:23:41;;;;;;;9.80;8.73;;;;;;;26.94;50.12;99560.16;5071954;28;20220;-69
2023/07/24 00:26:07;;;;;;;8.53;7.73;;;;;;;27.02;50.41;99564.94;5071522;28;20321;-69
2023/07/24 00:28:34;;;;;;;9.03;8.13;;;;;;;26.77;52.87;99565.41;5072309;28;20192;-69
2023/07/24 00:31:01;;;;;;;8.03;7.40;;;;;;;26.74;55.09;99555.13;5071546;28;20732;-69
2023/07/24 00:33:27;;;;;;;9.60;7.77;;;;;;;26.70;57.25;99560.34;5071900;28;20605;-69
2023/07/24 00:35:56;;;;;;;8.87;7.63;;;;;;;26.65;57.74;99565.88;5072055;28;20228;-69
2023/07/24 00:38:23;;;;;;;12.10;8.37;;;;;;;26.68;58.89;99562.56;5071574;28;20192;-69
2023/07/24 00:40:51;;;;;;;8.57;7.87;;;;;;;26.57;61.23;99560.25;5071415;28;20245;-69
2023/07/24 00:43:18;;;;;;;9.10;7.20;;;;;;;26.43;62.83;99564.88;5071695;28;20224;-69
2023/07/24 00:45:47;;;;;;;7.60;6.90;;;;;;;26.36;63.59;99558.97;5071778;28;20188;-69
2023/07/24 00:48:14;;;;;;;8.70;6.93;;;;;;;26.32;64.13;99555.22;5071860;28;20242;-69
2023/07/24 00:50:44;;;;;;;8.00;7.17;;;;;;;26.30;64.72;99555.53;5071354;28;20192;-69
2023/07/24 00:53:12;;;;;;;7.03;6.40;;;;;;;26.25;65.30;99552.88;5071399;28;20222;-69
2023/07/24 00:55:39;;;;;;;8.47;6.90;;;;;;;26.18;66.19;99557.94;5071613;28;20253;-69
2023/07/24 00:58:07;;;;;;;6.77;6.23;;;;;;;26.16;67.06;99571.00;5071394;28;20549;-69
2023/07/24 01:00:34;;;;;;;7.90;7.07;;;;;;;26.15;68.59;99568.59;5071558;28;20192;-69
2023/07/24 01:03:01;;;;;;;6.83;6.23;;;;;;;25.90;70.26;99560.75;5071304;28;20718;-69
2023/07/24 01:05:28;;;;;;;10.37;6.53;;;;;;;25.79;71.14;99564.72;5071238;28;20192;-69
2023/07/24 01:07:55;;;;;;;6.77;6.23;;;;;;;25.82;70.89;99569.56;5051509;28;20192;-69
2023/07/24 01:10:21;;;;;;;6.67;6.23;;;;;;;25.82;70.99;99570.41;5051113;28;20197;-69
2023/07/24 01:12:58;;;;;;;7.30;6.70;;;;;;;25.76;73.76;99568.03;5051234;28;20258;-69
2023/07/24 01:15:32;;;;;;;6.77;6.23;;;;;;;25.65;74.98;99566.56;5051177;28;20614;-69
2023/07/24 01:18:01;;;;;;;7.83;6.80;;;;;;;25.62;75.84;99569.84;5051629;28;20204;-69
2023/07/24 01:20:31;;;;;;;7.33;6.83;;;;;;;25.47;77.25;99572.78;5054178;28;20192;-69
2023/07/24 01:23:23;;;;;;;8.73;6.70;;;;;;;25.34;78.42;99577.00;5054656;28;20221;-69
2023/07/24 01:26:00;;;;;;;7.73;7.13;;;;;;;25.17;79.47;99575.81;5054855;28;20566;-69
2023/07/24 01:28:26;;;;;;;8.60;7.80;;;;;;;24.92;80.79;99583.13;5054615;28;20192;-69
2023/07/24 01:30:53;;;;;;;8.23;7.40;;;;;;;25.00;81.72;99571.63;5054825;28;20640;-69
2023/07/24 01:33:21;;;;;;;8.13;7.10;;;;;;;25.04;81.34;99588.19;5054785;28;20254;-69
2023/07/24 01:35:51;;;;;;;7.70;7.00;;;;;;;24.76;83.49;99587.09;5054673;28;20240;-69
2023/07/24 01:38:18;;;;;;;11.13;7.33;;;;;;;24.58;84.81;99581.50;5054454;28;20616;-69
2023/07/24 01:40:45;;;;;;;9.70;8.23;;;;;;;24.67;84.44;99583.38;5054575;28;20250;-69
2023/07/24 01:43:15;;;;;;;9.20;8.30;;;;;;;24.61;85.69;99581.78;5054231;28;20224;-69
2023/07/24 01:45:42;;;;;;;9.10;8.20;;;;;;;24.69;85.59;99586.63;5054141;28;20212;-69
2023/07/24 01:48:08;;;;;;;8.33;7.20;;;;;;;24.68;86.75;99587.72;5054548;28;20193;-69
2023/07/24 01:50:35;;;;;;;9.13;8.23;;;;;;;24.60;87.39;99585.63;5054503;28;20265;-69
2023/07/24 01:53:02;;;;;;;14.63;7.30;;;;;;;24.63;87.92;99590.47;5054394;28;20193;-69
2023/07/24 01:55:28;;;;;;;12.03;7.90;;;;;;;24.68;87.25;99590.44;5054127;28;20660;-69
2023/07/24 01:57:55;;;;;;;8.60;7.33;;;;;;;24.72;87.82;99593.38;5054268;28;20192;-69
2023/07/24 02:00:23;;;;;;;10.13;7.57;;;;;;;24.56;88.44;99592.69;5054313;28;20291;-69
2023/07/24 02:02:50;;;;;;;8.10;7.40;;;;;;;24.54;88.99;99584.00;5053859;28;20578;-69
2023/07/24 02:05:17;;;;;;;10.17;7.80;;;;;;;24.03;92.32;99582.75;5053926;28;20512;-69
2023/07/24 02:07:43;;;;;;;8.63;7.90;;;;;;;24.15;91.91;99587.81;5072430;28;20200;-69
2023/07/24 02:10:10;;;;;;;7.83;7.13;;;;;;;24.18;92.27;99588.06;5073835;28;20195;-69
2023/07/24 02:12:37;;;;;;;9.07;8.17;;;;;;;23.88;94.19;99582.81;5074020;28;20203;-69
2023/07/24 02:15:04;;;;;;;11.77;8.83;;;;;;;23.87;95.24;99578.47;5074134;28;20195;-69
2023/07/24 02:17:32;;;;;;;10.27;9.23;;;;;;;23.87;95.82;99583.91;5073623;28;20251;-69
2023/07/24 02:19:59;;;;;;;10.33;9.20;;;;;;;23.92;95.45;99577.66;5074183;28;20202;-69
2023/07/24 02:22:26;;;;;;;17.03;9.30;;;;;;;24.00;95.21;99588.75;5073556;28;20783;-69
2023/07/24 02:24:53;;;;;;;16.87;11.10;;;;;;;23.88;96.69;99588.22;5074018;28;20253;-69
2023/07/24 02:27:26;;;;;;;19.23;11.13;;;;;;;23.92;96.98;99589.31;5073665;28;20199;-68
2023/07/24 02:29:53;;;;;;;20.07;11.60;;;;;;;23.94;97.35;99580.91;5074016;28;20240;-69
2023/07/24 02:32:21;;;;;;;15.30;11.53;;;;;;;23.97;97.59;99586.56;5072687;28;20231;-68
2023/07/24 02:34:49;;;;;;;15.50;11.23;;;;;;;23.93;97.96;99585.50;5073588;28;20234;-69
2023/07/24 02:37:16;;;;;;;17.17;11.53;;;;;;;24.02;97.26;99583.81;5073776;28;20283;-69
2023/07/24 02:39:43;;;;;;;20.97;13.47;;;;;;;24.05;97.10;99594.13;5073560;28;20255;-69
2023/07/24 02:42:10;;;;;;;12.67;11.43;;;;;;;24.12;96.84;99591.09;5073340;28;20199;-69
2023/07/24 02:44:36;;;;;;;21.83;13.67;;;;;;;24.02;97.46;99600.09;5073680;28;20195;-69
2023/07/24 02:47:05;;;;;;;19.33;13.80;;;;;;;24.00;98.15;99599.59;5073356;28;20196;-69
2023/07/24 02:49:32;;;;;;;20.30;14.73;;;;;;;24.09;98.18;99600.63;5073060;28;20667;-69
2023/07/24 02:52:01;;;;;;;17.80;14.77;;;;;;;24.09;98.43;99595.19;5073211;28;20213;-69
2023/07/24 02:54:27;;;;;;;21.10;15.47;;;;;;;24.11;98.39;99595.72;5072960;28;20198;-69
2023/07/24 02:56:54;;;;;;;20.83;15.90;;;;;;;24.10;98.16;99587.88;5072819;28;20199;-69
2023/07/24 02:59:21;;;;;;;26.40;16.67;;;;;;;24.11;98.13;99593.03;5072873;28;20681;-69
2023/07/24 03:01:47;;;;;;;28.50;19.67;;;;;;;24.03;98.19;99599.03;5073290;28;20190;-69
2023/07/24 03:04:14;;;;;;;21.93;17.80;;;;;;;24.06;97.75;99601.16;5073019;28;20226;-69
2023/07/24 03:06:41;;;;;;;31.17;17.40;;;;;;;24.08;97.81;99600.91;5063190;28;20191;-69
2023/07/24 03:09:09;;;;;;;28.73;18.07;;;;;;;24.12;97.07;99597.34;5052955;28;20199;-69
2023/07/24 03:11:35;;;;;;;40.20;27.53;;;;;;;23.95;97.20;99601.53;5052841;28;20253;-69
2023/07/24 03:14:02;;;;;;;35.60;17.27;;;;;;;23.67;97.91;99597.56;5052773;28;20200;-69
2023/07/24 03:16:29;;;;;;;24.50;17.10;;;;;;;23.75;98.75;99599.69;5052852;28;20249;-69
2023/07/24 03:18:55;;;;;;;28.40;18.53;;;;;;;23.85;98.12;99596.91;5052443;28;20554;-68
2023/07/24 03:21:22;;;;;;;29.50;19.17;;;;;;;23.85;97.84;99594.22;5052768;28;20273;-69
2023/07/24 03:23:49;;;;;;;29.73;20.03;;;;;;;23.95;97.68;99598.81;5052609;28;20572;-68
2023/07/24 03:26:17;;;;;;;27.67;20.80;;;;;;;23.99;97.23;99606.13;5052747;28;20256;-68
2023/07/24 03:28:43;;;;;;;28.47;18.07;;;;;;;24.00;97.65;99606.91;5052562;28;20196;-68
2023/07/24 03:31:10;;;;;;;29.27;20.40;;;;;;;24.09;97.27;99597.91;5052583;28;20618;-69
2023/07/24 03:33:37;;;;;;;32.93;20.63;;;;;;;24.19;96.34;99606.00;5052488;28;20199;-68
2023/07/24 03:36:04;;;;;;;34.97;20.13;;;;;;;24.26;96.39;99600.25;5052888;28;20228;-69
2023/07/24 03:38:31;;;;;;;29.03;19.80;;;;;;;24.34;96.10;99603.16;5052408;28;20191;-68
2023/07/24 03:40:57;;;;;;;33.03;20.83;;;;;;;24.41;96.10;99603.66;5052141;28;20196;-68
2023/07/24 03:43:25;;;;;;;27.70;18.67;;;;;;;24.36;95.54;99606.41;5051063;28;20287;-68
2023/07/24 03:45:52;;;;;;;31.27;18.07;;;;;;;24.43;94.97;99612.31;5052376;28;20192;-68
2023/07/24 03:48:19;;;;;;;26.50;16.63;;;;;;;24.51;93.65;99598.13;5052311;28;20188;-68
2023/07/24 03:50:45;;;;;;;28.07;18.43;;;;;;;24.62;93.77;99605.16;5052364;28;20261;-69
2023/07/24 03:53:12;;;;;;;26.20;17.27;;;;;;;24.74;93.02;99608.31;5051871;28;20199;-69
2023/07/24 03:55:39;;;;;;;24.77;16.63;;;;;;;24.81;91.29;99603.34;5052560;28;20199;-69
2023/07/24 03:58:06;;;;;;;26.47;16.17;;;;;;;24.91;90.71;99608.69;5051808;28;20660;-69
2023/07/24 04:00:34;;;;;;;24.83;16.13;;;;;;;24.95;88.97;99606.22;5052265;28;20254;-69
2023/07/24 04:03:00;;;;;;;26.63;17.60;;;;;;;24.87;89.71;99607.63;5052022;28;20217;-68
2023/07/24 04:05:27;;;;;;;25.30;16.57;;;;;;;25.04;89.09;99623.53;5051815;28;20726;-68
2023/07/24 04:07:55;;;;;;;22.90;17.17;;;;;;;25.20;88.47;99613.31;5071851;28;20195;-68
2023/07/24 04:10:22;;;;;;;21.33;16.83;;;;;;;25.62;87.85;99605.22;5072010;28;20246;-69
2023/07/24 04:12:48;;;;;;;27.93;18.03;;;;;;;25.82;86.41;99608.50;5071993;28;20187;-69
2023/07/24 04:15:15;;;;;;;21.30;15.17;;;;;;;26.10;84.49;99609.50;5072046;28;20237;-69
2023/07/24 04:17:43;;;;;;;23.40;17.07;;;;;;;26.66;81.91;99607.59;5071668;28;20199;-69
2023/07/24 04:20:10;;;;;;;20.50;16.47;;;;;;;27.25;79.63;99627.53;5071697;28;20191;-69
2023/07/24 04:22:37;;;;;;;21.10;15.93;;;;;;;27.68;77.43;99625.34;5071763;28;20192;-70
2023/07/24 04:25:04;;;;;;;20.53;16.20;;;;;;;28.28;73.91;99633.03;5071652;28;20226;-70
2023/07/24 04:27:31;;;;;;;20.17;17.37;;;;;;;28.72;70.38;99645.97;5071842;28;20245;-69
2023/07/24 04:29:57;;;;;;;16.97;15.00;;;;;;;28.78;67.75;99645.53;5071879;28;20245;-69
2023/07/24 04:32:24;;;;;;;17.87;15.90;;;;;;;28.65;68.19;99640.13;5071567;28;20254;-69
2023/07/24 04:34:52;;;;;;;20.43;16.17;;;;;;;28.32;69.71;99641.41;5071521;28;20224;-69
2023/07/24 04:37:19;;;;;;;21.53;16.73;;;;;;;28.15;70.76;99642.09;5071964;28;20200;-69
2023/07/24 04:39:46;;;;;;;26.90;18.60;;;;;;;28.13;70.55;99648.97;5071660;28;20249;-69
2023/07/24 04:42:12;;;;;;;21.97;16.13;;;;;;;28.35;70.69;99651.75;5071484;28;20617;-70
2023/07/24 04:44:39;;;;;;;16.80;15.00;;;;;;;28.91;69.58;99654.78;5071697;28;20336;-69
2023/07/24 04:47:06;;;;;;;26.47;15.10;;;;;;;29.40;65.74;99660.09;5071881;28;20253;-69
2023/07/24 04:49:32;;;;;;;26.20;15.20;;;;;;;29.61;61.58;99668.56;5071752;28;20250;-69
2023/07/24 04:52:00;;;;;;;29.03;16.60;;;;;;;29.32;61.67;99662.78;5071493;28;20257;-69
2023/07/24 04:54:27;;;;;;;35.47;16.67;;;;;;;29.27;62.69;99658.25;5073038;28;20200;-70
2023/07/24 04:56:54;;;;;;;28.30;17.43;;;;;;;29.73;61.03;99666.88;5075515;28;20196;-69
2023/07/24 04:59:20;;;;;;;33.50;18.90;;;;;;;30.45;58.74;99678.97;5075353;28;20195;-70
2023/07/24 05:01:47;;;;;;;41.13;16.07;;;;;;;31.07;56.24;99684.94;5075552;28;20603;-69
2023/07/24 05:04:14;;;;;;;28.23;17.03;;;;;;;31.50;53.90;99669.97;5075258;28;20220;-69
2023/07/24 05:06:40;;;;;;;26.47;15.77;;;;;;;31.96;53.03;99680.13;5075397;28;20200;-70
2023/07/24 05:09:08;;;;;;;23.93;15.80;;;;;;;32.66;50.83;99675.44;5075242;28;20188;-69
2023/07/24 05:11:35;;;;;;;23.27;15.90;;;;;;;33.15;49.75;99687.47;5075554;28;20623;-69
2023/07/24 05:14:02;;;;;;;41.23;18.40;;;;;;;33.61;47.15;99691.88;5074882;28;20199;-69
2023/07/24 05:16:28;;;;;;;26.83;15.90;;;;;;;33.15;48.46;99691.06;5074708;28;20721;-69
2023/07/24 05:18:55;;;;;;;29.83;17.07;;;;;;;32.99;48.83;99690.06;5074623;28;20574;-69
2023/07/24 05:21:22;;;;;;;30.70;16.43;;;;;;;32.60;50.04;99681.50;5074671;28;20624;-69
2023/07/24 05:23:48;;;;;;;21.53;15.83;;;;;;;32.28;50.78;99677.50;5074901;28;20228;-69
2023/07/24 05:26:16;;;;;;;21.70;15.73;;;;;;;31.88;52.84;99672.72;5074935;28;20188;-69
2023/07/24 05:28:43;;;;;;;27.63;17.07;;;;;;;32.05;51.79;99678.94;5074438;28;20222;-69
2023/07/24 05:31:10;;;;;;;37.37;19.07;;;;;;;32.09;51.80;99684.59;5074563;28;20720;-69
2023/07/24 05:33:36;;;;;;;28.17;17.90;;;;;;;31.70;53.60;99683.00;5074403;28;20736;-69
2023/07/24 05:36:04;;;;;;;25.20;16.57;;;;;;;31.91;52.38;99685.81;5075113;28;20710;-69
2023/07/24 05:38:31;;;;;;;36.17;17.83;;;;;;;32.42;50.71;99694.56;5074618;28;20249;-69
2023/07/24 05:40:59;;;;;;;40.70;17.70;;;;;;;32.75;49.49;99692.69;5074642;28;20667;-69
2023/07/24 05:43:28;;;;;;;27.20;17.77;;;;;;;33.26;48.32;99694.19;5074434;28;20223;-70
2023/07/24 05:45:56;;;;;;;32.07;16.97;;;;;;;33.68;47.58;99686.59;5074243;28;20733;-69
2023/07/24 05:48:23;;;;;;;23.13;18.50;;;;;;;34.13;45.50;99695.59;5073864;28;20255;-70
2023/07/24 05:50:50;;;;;;;26.42;18.83;;;;;;;34.47;44.94;99692.34;5074145;28;20249;-70
2023/07/24 05:53:18;;;;;;;22.13;16.25;;;;;;;35.01;43.73;99691.59;5074172;28;20254;-69
2023/07/24 05:55:45;;;;;;;30.27;18.17;;;;;;;35.90;40.89;99687.28;5074356;28;20249;-68
2023/07/24 05:58:12;;;;;;;28.92;16.48;;;;;;;36.52;39.23;99690.72;5074332;28;20188;-70
2023/07/24 06:00:40;;;;;;;26.67;16.85;;;;;;;36.51;39.49;99693.84;5073887;28;20196;-69
2023/07/24 06:03:07;;;;;;;24.92;16.63;;;;;;;36.48;39.25;99677.97;5073766;28;20197;-69
2023/07/24 06:05:33;;;;;;;25.52;18.27;;;;;;;36.24;38.90;99675.44;5072768;28;20196;-70
2023/07/24 06:08:00;;;;;;;22.85;15.27;;;;;;;36.23;39.64;99669.13;5073930;28;20286;-69
2023/07/24 06:10:27;;;;;;;27.23;16.55;;;;;;;36.41;39.31;99677.81;5073876;28;20196;-70
2023/07/24 06:12:53;;;;;;;27.60;16.13;;;;;;;36.64;37.53;99675.94;5073707;28;20253;-68
2023/07/24 06:15:20;;;;;;;19.52;14.68;;;;;;;37.02;36.10;99670.41;5073640;28;20200;-68
2023/07/24 06:17:48;;;;;;;24.10;14.90;;;;;;;37.00;36.20;99667.22;5073727;28;20253;-68
2023/07/24 06:20:15;;;;;;;24.48;16.27;;;;;;;36.78;36.38;99665.97;5073897;28;20188;-68
2023/07/24 06:22:41;;;;;;;70.25;19.73;;;;;;;36.78;37.42;99665.16;5073577;28;20245;-68
2023/07/24 06:25:09;;;;;;;39.75;15.30;;;;;;;36.62;36.41;99664.44;5073519;28;20665;-68
2023/07/24 06:27:35;;;;;;;21.70;14.02;;;;;;;36.49;35.57;99657.41;5073565;28;20273;-69
2023/07/24 06:30:02;;;;;;;20.10;14.85;;;;;;;36.61;35.12;99652.53;5073571;28;20196;-68
2023/07/24 06:32:29;;;;;;;16.08;14.15;;;;;;;36.00;35.59;99639.69;5073312;28;20198;-68
2023/07/24 06:34:57;;;;;;;18.33;15.25;;;;;;;35.49;35.96;99638.84;5073264;28;20273;-68
2023/07/24 06:37:24;;;;;;;21.73;14.88;;;;;;;35.34;36.53;99644.34;5073617;28;20191;-68
2023/07/24 06:39:51;;;;;;;16.95;13.73;;;;;;;35.32;36.86;99641.16;5073130;28;20234;-68
2023/07/24 06:42:17;;;;;;;21.65;15.93;;;;;;;35.47;36.09;99637.56;5073148;28;20188;-68
2023/07/24 06:44:44;;;;;;;18.25;15.13;;;;;;;35.26;36.62;99642.53;5072038;28;20216;-68
2023/07/24 06:47:10;;;;;;;21.60;16.27;;;;;;;35.13;36.43;99624.44;5072971;28;20200;-68
2023/07/24 06:49:37;;;;;;;18.65;14.68;;;;;;;35.34;35.37;99642.41;5072704;28;20245;-68
2023/07/24 06:52:06;;;;;;;20.15;14.90;;;;;;;35.55;34.51;99640.16;5072423;28;20724;-68
2023/07/24 06:54:32;;;;;;;31.90;18.83;;;;;;;35.60;33.86;99641.88;5072815;28;20196;-68
2023/07/24 06:56:59;;;;;;;20.67;16.42;;;;;;;35.38;34.30;99635.00;5073163;28;20217;-67
2023/07/24 06:59:26;;;;;;;18.38;15.68;;;;;;;34.95;35.11;99628.69;5073010;28;20245;-68
2023/07/24 07:01:52;;;;;;;28.63;17.20;;;;;;;34.92;35.65;99644.00;5072694;28;20589;-69
2023/07/24 07:04:19;;;;;;;19.77;15.65;;;;;;;34.66;36.06;99629.81;5070569;28;20840;-69
2023/07/24 07:06:46;;;;;;;18.65;16.70;;;;;;;34.92;35.64;99632.97;5061030;28;20664;-68
2023/07/24 07:09:14;;;;;;;19.67;15.75;;;;;;;35.17;35.18;99626.13;5052073;28;20541;-69
2023/07/24 07:11:43;;;;;;;19.70;15.80;;;;;;;35.56;33.78;99625.19;5052484;28;20249;-68
2023/07/24 07:14:09;;;;;;;32.08;16.63;;;;;;;35.67;33.44;99629.00;5052748;28;20251;-68
2023/07/24 07:16:36;;;;;;;19.13;14.77;;;;;;;35.84;33.22;99631.41;5051954;28;20683;-68
2023/07/24 07:19:03;;;;;;;19.27;14.52;;;;;;;35.93;33.21;99617.41;5052750;28;20188;-67
2023/07/24 07:21:30;;;;;;;21.42;15.73;;;;;;;35.43;33.68;99609.84;5052712;28;20250;-68
2023/07/24 07:23:56;;;;;;;20.00;14.90;;;;;;;35.42;34.44;99612.97;5052655;28;20216;-67
2023/07/24 07:26:25;;;;;;;16.65;14.88;;;;;;;35.24;34.49;99611.69;5052617;28;20197;-68
2023/07/24 07:28:51;;;;;;;21.33;14.57;;;;;;;34.79;34.61;99605.72;5052338;28;20250;-68
2023/07/24 07:31:18;;;;;;;16.35;14.45;;;;;;;34.89;34.14;99613.53;5052180;28;20684;-68
2023/07/24 07:33:45;;;;;;;21.95;14.50;;;;;;;35.17;33.96;99606.81;5052204;28;20230;-68
2023/07/24 07:36:12;;;;;;;17.00;15.07;;;;;;;35.48;33.22;99604.03;5052439;28;20286;-68
2023/07/24 07:38:39;;;;;;;16.58;13.77;;;;;;;35.74;32.91;99600.72;5052142;28;20664;-68
2023/07/24 07:41:06;;;;;;;18.42;14.25;;;;;;;35.98;32.48;99597.75;5052223;28;20690;-68
2023/07/24 07:43:36;;;;;;;18.33;13.65;;;;;;;35.98;32.85;99595.00;5052045;28;20224;-67
2023/07/24 07:46:02;;;;;;;18.85;14.55;;;;;;;36.17;33.59;99590.28;5052143;28;20602;-67
2023/07/24 07:48:29;;;;;;;15.23;13.70;;;;;;;36.39;33.68;99586.03;5051992;28;20739;-67
2023/07/24 07:50:56;;;;;;;22.08;14.95;;;;;;;36.61;33.81;99586.09;5052226;28;20192;-67
2023/07/24 07:53:22;;;;;;;17.00;14.45;;;;;;;36.35;33.33;99582.38;5052274;28;20258;-67
2023/07/24 07:55:56;;;;;;;17.52;14.70;;;;;;;36.30;33.27;99583.47;5051818;28;20197;-67
2023/07/24 07:58:23;;;;;;;19.05;14.20;;;;;;;36.37;34.10;99577.28;5051911;28;20556;-67
2023/07/24 08:00:51;;;;;;;20.33;14.80;;;;;;;36.44;34.13;99571.91;5051870;28;20192;-67
2023/07/24 08:03:18;;;;;;;18.55;14.68;;;;;;;36.54;34.23;99565.78;5052037;28;20254;-67
2023/07/24 08:05:45;;;;;;;19.23;14.13;;;;;;;36.58;34.25;99575.75;5053434;28;20220;-67
2023/07/24 08:08:11;;;;;;;18.98;15.48;;;;;;;36.77;33.27;99574.94;5071959;28;20740;-68
2023/07/24 08:10:38;;;;;;;18.50;14.73;;;;;;;37.06;32.90;99577.06;5072024;28;20267;-68
2023/07/24 08:13:06;;;;;;;19.27;15.15;;;;;;;36.92;32.46;99565.75;5071785;28;20278;-68
2023/07/24 08:15:35;;;;;;;19.98;14.27;;;;;;;36.96;32.25;99572.94;5071935;28;20200;-68
2023/07/24 08:18:04;;;;;;;19.75;14.70;;;;;;;37.13;32.79;99566.94;5071693;28;20628;-67
2023/07/24 08:20:30;;;;;;;19.92;13.50;;;;;;;37.32;32.44;99565.25;5071576;28;20196;-67
2023/07/24 08:22:57;;;;;;;15.38;13.77;;;;;;;37.33;32.90;99564.91;5072030;28;20253;-67
2023/07/24 08:25:24;;;;;;;20.05;14.13;;;;;;;37.44;32.26;99560.34;5072023;28;20285;-67
2023/07/24 08:27:51;;;;;;;16.55;14.02;;;;;;;37.59;32.60;99567.72;5071817;28;20656;-67
2023/07/24 08:30:18;;;;;;;14.75;13.45;;;;;;;37.80;31.84;99573.56;5074846;28;20195;-67
2023/07/24 08:32:45;;;;;;;15.38;13.95;;;;;;;37.81;31.64;99569.66;5076322;28;20191;-67
2023/07/24 08:35:13;;;;;;;20.73;14.50;;;;;;;37.78;31.30;99569.56;5075368;28;20289;-68
2023/07/24 08:37:43;;;;;;;17.33;14.50;;;;;;;37.67;32.19;99563.88;5076111;28;20192;-67
2023/07/24 08:40:11;;;;;;;16.05;14.48;;;;;;;37.60;32.20;99558.22;5075596;28;20238;-68
2023/07/24 08:42:39;;;;;;;15.50;13.80;;;;;;;37.69;31.41;99561.53;5075744;28;20203;-67
2023/07/24 08:45:11;;;;;;;14.35;12.98;;;;;;;37.67;32.00;99552.78;5075345;28;20281;-67
2023/07/24 08:47:40;;;;;;;14.25;12.73;;;;;;;37.79;31.55;99547.00;5075366;28;20184;-67
2023/07/24 08:50:11;;;;;;;15.10;13.60;;;;;;;37.86;31.55;99549.91;5075273;28;20192;-68
2023/07/24 08:52:39;;;;;;;15.30;13.70;;;;;;;37.94;31.31;99548.81;5075523;28;20736;-67
2023/07/24 08:55:06;;;;;;;15.07;13.55;;;;;;;37.89;31.40;99545.56;5075580;28;20192;-68
2023/07/24 08:57:33;;;;;;;18.70;12.60;;;;;;;37.52;31.61;99539.88;5075411;28;20204;-67
2023/07/24 09:00:04;;;;;;;14.27;12.98;;;;;;;37.66;31.67;99540.09;5075348;28;20200;-67
2023/07/24 09:02:31;;;;;;;14.82;13.32;;;;;;;37.51;31.84;99537.47;5075674;28;20188;-67
2023/07/24 09:04:58;;;;;;;15.07;13.10;;;;;;;37.60;31.68;99527.69;5074972;28;20647;-67
2023/07/24 09:07:24;;;;;;;14.32;12.90;;;;;;;37.53;33.01;99535.91;5059384;28;20254;-67
2023/07/24 09:09:52;;;;;;;14.38;12.80;;;;;;;37.65;32.47;99530.19;5055499;28;20189;-67
2023/07/24 09:12:19;;;;;;;15.25;13.60;;;;;;;37.78;32.34;99531.56;5054882;28;20250;-67
2023/07/24 09:14:46;;;;;;;14.40;12.98;;;;;;;38.00;31.61;99529.88;5055375;28;20193;-67
2023/07/24 09:17:13;;;;;;;13.43;11.68;;;;;;;38.21;31.29;99536.50;5054736;28;20743;-68
2023/07/24 09:19:40;;;;;;;13.32;11.93;;;;;;;38.33;30.50;99530.69;5055314;28;20204;-67
2023/07/24 09:22:12;;;;;;;12.70;11.50;;;;;;;38.13;30.19;99532.03;5054901;28;20193;-68
2023/07/24 09:24:38;;;;;;;13.70;12.43;;;;;;;38.12;30.65;99524.88;5054665;28;20254;-67
2023/07/24 09:27:08;;;;;;;13.23;11.98;;;;;;;38.08;30.49;99518.50;5054800;28;20189;-67
2023/07/24 09:29:35;;;;;;;12.07;11.07;;;;;;;37.96;30.39;99515.16;5055122;28;20633;-67
2023/07/24 09:32:02;;;;;;;12.45;11.00;;;;;;;37.76;30.41;99510.91;5054767;28;20189;-67
2023/07/24 09:34:29;;;;;;;13.20;11.77;;;;;;;37.61;30.30;99509.09;5054458;28;20228;-67
2023/07/24 09:36:56;;;;;;;12.35;11.10;;;;;;;37.53;30.80;99510.16;5054338;28;20246;-67
2023/07/24 09:39:26;;;;;;;14.52;11.45;;;;;;;37.31;31.43;99505.47;5054432;28;20199;-67
2023/07/24 09:41:54;;;;;;;12.07;11.05;;;;;;;37.31;30.80;99495.16;5054457;28;20188;-68
2023/07/24 09:44:25;;;;;;;12.13;11.02;;;;;;;37.15;30.50;99502.84;5055189;28;20193;-68
2023/07/24 09:46:52;;;;;;;15.82;11.70;;;;;;;37.32;30.24;99491.22;5054193;28;20242;-68
2023/07/24 09:49:19;;;;;;;14.48;12.00;;;;;;;37.56;29.74;99490.00;5054551;28;20243;-68
2023/07/24 09:51:50;;;;;;;11.77;10.68;;;;;;;36.95;30.42;99488.22;5054373;28;20250;-68
2023/07/24 09:54:23;;;;;;;12.45;11.32;;;;;;;36.93;29.84;99468.41;5054629;28;20181;-68
2023/07/24 09:56:52;;;;;;;17.23;12.40;;;;;;;37.01;30.86;99469.31;5054190;28;20612;-68
2023/07/24 09:59:20;;;;;;;15.30;13.05;;;;;;;37.10;31.14;99461.53;5054048;28;20192;-68
2023/07/24 10:01:49;;;;;;;13.57;12.27;;;;;;;37.19;29.76;99459.34;5053925;28;20675;-68
2023/07/24 10:04:17;;;;;;;12.75;11.32;;;;;;;37.31;30.04;99456.34;5054450;28;20198;-67
2023/07/24 10:06:44;;;;;;;11.85;10.75;;;;;;;37.55;29.16;99460.69;5063917;28;20649;-67
2023/07/24 10:09:12;;;;;;;12.40;11.15;;;;;;;37.73;28.40;99467.28;5074281;28;20245;-67
2023/07/24 10:11:39;;;;;;;12.05;10.80;;;;;;;37.86;28.61;99463.91;5074038;28;20261;-67
2023/07/24 10:14:06;;;;;;;23.33;11.80;;;;;;;37.73;28.98;99451.44;5074170;28;20223;-68
2023/07/24 10:16:33;;;;;;;12.93;11.52;;;;;;;37.52;29.26;99451.13;5073680;28;20200;-68
2023/07/24 10:19:02;;;;;;;12.75;11.10;;;;;;;37.59;28.62;99451.25;5074061;28;20192;-68
2023/07/24 10:21:29;;;;;;;11.90;10.48;;;;;;;37.70;28.44;99435.56;5073579;28;20192;-68
2023/07/24 10:23:55;;;;;;;12.68;11.38;;;;;;;37.59;28.58;99422.72;5073903;28;20291;-68
2023/07/24 10:26:26;;;;;;;11.07;9.95;;;;;;;37.69;27.49;99428.41;5073313;28;20772;-70
2023/07/24 10:28:53;;;;;;;11.27;9.48;;;;;;;37.61;27.25;99421.19;5074075;28;20188;-68
2023/07/24 10:31:23;;;;;;;11.40;10.23;;;;;;;37.65;28.27;99424.78;5073471;28;20228;-68
2023/07/24 10:33:51;;;;;;;10.77;9.88;;;;;;;37.80;27.05;99418.22;5073336;28;20195;-68
2023/07/24 10:36:20;;;;;;;13.27;11.10;;;;;;;37.97;27.51;99419.63;5073191;28;20273;-68
2023/07/24 10:38:52;;;;;;;12.55;11.32;;;;;;;37.91;27.56;99401.72;5073154;28;20626;-68
2023/07/24 10:41:19;;;;;;;13.32;10.93;;;;;;;38.03;27.60;99396.75;5073289;28;20639;-68
2023/07/24 10:43:47;;;;;;;12.13;9.35;;;;;;;38.00;26.18;99405.78;5073369;28;20192;-68
2023/07/24 10:46:14;;;;;;;11.68;9.50;;;;;;;37.99;25.96;99392.28;5073630;28;20226;-68
2023/07/24 10:48:46;;;;;;;11.13;9.93;;;;;;;38.16;26.11;99386.19;5073002;28;20663;-69
2023/07/24 10:51:14;;;;;;;10.40;9.60;;;;;;;37.89;26.54;99370.78;5073045;28;20201;-68
2023/07/24 10:53:44;;;;;;;10.05;9.02;;;;;;;37.84;25.58;99369.13;5073139;28;20196;-67
2023/07/24 10:56:11;;;;;;;24.67;10.23;;;;;;;37.94;25.26;99362.13;5073332;28;20188;-68
2023/07/24 10:58:38;;;;;;;13.13;10.50;;;;;;;37.95;26.08;99353.41;5073246;28;20192;-68
2023/07/24 11:01:05;;;;;;;18.70;12.10;;;;;;;38.05;28.80;99354.75;5072901;28;20242;-69
2023/07/24 11:03:32;;;;;;;12.82;11.73;;;;;;;38.00;28.67;99350.28;5072624;28;20750;-68
2023/07/24 11:05:59;;;;;;;12.55;11.35;;;;;;;38.05;27.91;99344.41;5072577;28;20227;-67
2023/07/24 11:08:27;;;;;;;12.75;11.68;;;;;;;38.06;27.55;99342.44;5072683;28;20266;-68
2023/07/24 11:10:56;;;;;;;12.15;11.25;;;;;;;38.00;26.76;99341.97;5072692;28;20252;-67
2023/07/24 11:13:25;;;;;;;12.10;11.10;;;;;;;37.39;26.33;99335.31;5072623;28;20192;-67
2023/07/24 11:15:52;;;;;;;12.43;11.15;;;;;;;36.98;28.01;99337.09;5072439;28;20250;-68
2023/07/24 11:18:20;;;;;;;16.75;11.82;;;;;;;37.25;27.34;99335.91;5072635;28;20196;-68
2023/07/24 11:20:50;;;;;;;12.18;10.90;;;;;;;37.52;26.96;99329.13;5072884;28;20268;-67